createdAt,value
2023-05-12T00:01:35.332Z,4.10
2023-05-12T00:04:02.375Z,2.80
2023-05-12T00:06:29.342Z,3.00
2023-05-12T00:08:56.222Z,3.80
2023-05-12T00:11:24.471Z,2.08
2023-05-12T00:13:51.477Z,2.40
2023-05-12T00:16:18.377Z,5.63
2023-05-12T00:18:45.308Z,5.65
2023-05-12T00:21:12.204Z,3.72
2023-05-12T00:23:39.298Z,2.65
2023-05-12T00:26:06.376Z,3.03
2023-05-12T00:28:34.721Z,5.47
2023-05-12T00:31:01.940Z,5.07
2023-05-12T00:33:28.818Z,4.28
2023-05-12T00:35:55.674Z,4.55
2023-05-12T00:38:22.529Z,4.65
2023-05-12T00:40:49.364Z,4.70
2023-05-12T00:43:16.263Z,5.40
2023-05-12T00:45:44.584Z,4.55
2023-05-12T00:48:11.611Z,3.78
2023-05-12T00:50:38.610Z,4.40
2023-05-12T00:53:05.525Z,3.30
2023-05-12T00:55:32.403Z,3.25
2023-05-12T00:57:59.520Z,3.60
2023-05-12T01:00:26.468Z,3.30
2023-05-12T01:02:55.142Z,3.53
2023-05-12T01:05:22.038Z,4.53
2023-05-12T01:07:48.913Z,2.55
2023-05-12T01:10:19.313Z,3.83
2023-05-12T01:12:46.369Z,4.13
2023-05-12T01:15:13.211Z,2.80
2023-05-12T01:17:45.314Z,2.72
2023-05-12T01:20:14.816Z,2.88
2023-05-12T01:22:42.050Z,3.47
2023-05-12T01:25:10.340Z,5.07
2023-05-12T01:27:38.919Z,3.47
2023-05-12T01:30:06.856Z,3.40
2023-05-12T01:32:33.820Z,2.80
2023-05-12T01:35:00.711Z,3.80
2023-05-12T01:37:27.548Z,5.90
2023-05-12T01:39:54.600Z,2.78
2023-05-12T01:42:21.560Z,4.20
2023-05-12T01:44:49.792Z,4.70
2023-05-12T01:47:16.667Z,5.20
2023-05-12T01:49:43.547Z,3.17
2023-05-12T01:52:10.403Z,3.65
2023-05-12T01:54:37.245Z,4.13
2023-05-12T01:57:04.763Z,3.45
2023-05-12T01:59:31.645Z,3.67
2023-05-12T02:01:59.936Z,4.68
2023-05-12T02:04:26.850Z,2.55
2023-05-12T02:06:53.716Z,3.53
2023-05-12T02:09:20.583Z,3.03
2023-05-12T02:11:47.448Z,5.95
2023-05-12T02:14:14.308Z,3.75
2023-05-12T02:16:41.276Z,3.03
2023-05-12T02:19:09.605Z,3.58
2023-05-12T02:21:36.588Z,4.25
2023-05-12T02:24:03.731Z,5.18
2023-05-12T02:26:30.600Z,2.55
2023-05-12T02:28:57.582Z,4.20
2023-05-12T02:31:24.496Z,3.92
2023-05-12T02:33:51.379Z,3.38
2023-05-12T02:36:19.624Z,3.42
2023-05-12T02:38:46.497Z,3.10
2023-05-12T02:41:13.369Z,6.78
2023-05-12T02:43:40.209Z,3.75
2023-05-12T02:46:07.202Z,3.83
2023-05-12T02:48:34.087Z,2.78
2023-05-12T02:51:00.957Z,4.70
2023-05-12T02:53:29.398Z,3.28
2023-05-12T02:55:56.264Z,2.95
2023-05-12T02:58:23.119Z,5.07
2023-05-12T03:00:56.884Z,3.42
2023-05-12T03:03:30.282Z,3.22
2023-05-12T03:05:57.164Z,3.72
2023-05-12T03:08:24.077Z,3.03
2023-05-12T03:10:52.322Z,5.03
2023-05-12T03:13:19.174Z,3.33
2023-05-12T03:15:46.050Z,2.13
2023-05-12T03:18:13.106Z,2.72
2023-05-12T03:20:40.198Z,4.45
2023-05-12T03:23:07.068Z,2.47
2023-05-12T03:25:33.925Z,3.90
2023-05-12T03:28:02.272Z,3.00
2023-05-12T03:30:29.176Z,2.88
2023-05-12T03:32:56.239Z,2.97
2023-05-12T03:35:23.634Z,3.22
2023-05-12T03:37:50.468Z,4.63
2023-05-12T03:40:17.604Z,1.95
2023-05-12T03:42:44.738Z,2.67
2023-05-12T03:45:13.124Z,3.35
2023-05-12T03:47:40.652Z,3.67
2023-05-12T03:50:08.413Z,2.95
2023-05-12T03:52:35.312Z,2.03
2023-05-12T03:55:02.215Z,2.50
2023-05-12T03:57:29.075Z,3.45
2023-05-12T03:59:55.941Z,2.22
2023-05-12T04:02:24.301Z,3.10
2023-05-12T04:04:51.193Z,2.05
2023-05-12T04:07:18.053Z,2.55
2023-05-12T04:09:44.930Z,1.80
2023-05-12T04:12:11.786Z,1.70
2023-05-12T04:14:42.943Z,2.40
2023-05-12T04:17:10.251Z,2.47
2023-05-12T04:19:38.611Z,3.28
2023-05-12T04:22:05.664Z,3.05
2023-05-12T04:24:32.566Z,2.75
2023-05-12T04:26:59.489Z,2.10
2023-05-12T04:29:26.381Z,1.98
2023-05-12T04:31:54.828Z,2.40
2023-05-12T04:34:21.809Z,4.00
2023-05-12T04:36:50.116Z,4.18
2023-05-12T04:39:16.953Z,3.88
2023-05-12T04:41:43.787Z,3.28
2023-05-12T04:44:10.647Z,3.55
2023-05-12T04:46:37.738Z,1.90
2023-05-12T04:49:04.653Z,1.23
2023-05-12T04:51:31.532Z,1.60
2023-05-12T04:53:59.770Z,2.50
2023-05-12T04:56:26.707Z,3.60
2023-05-12T04:58:53.565Z,1.80
2023-05-12T05:01:20.489Z,3.00
2023-05-12T05:03:47.460Z,2.35
2023-05-12T05:06:14.407Z,2.28
2023-05-12T05:08:41.250Z,1.95
2023-05-12T05:11:09.505Z,1.77
2023-05-12T05:13:36.394Z,2.45
2023-05-12T05:16:03.323Z,3.47
2023-05-12T05:18:30.258Z,2.72
2023-05-12T05:20:58.811Z,2.47
2023-05-12T05:23:26.287Z,2.30
2023-05-12T05:25:53.180Z,1.95
2023-05-12T05:28:21.419Z,4.07
2023-05-12T05:30:48.319Z,1.83
2023-05-12T05:33:15.288Z,3.17
2023-05-12T05:35:42.145Z,2.10
2023-05-12T05:38:08.990Z,1.65
2023-05-12T05:40:48.868Z,4.45
2023-05-12T05:43:20.905Z,2.55
2023-05-12T05:45:47.807Z,2.75
2023-05-12T05:48:14.690Z,2.20
2023-05-12T05:50:41.558Z,1.85
2023-05-12T05:53:08.398Z,1.85
2023-05-12T05:55:35.250Z,1.73
2023-05-12T05:58:02.129Z,1.60
2023-05-12T06:00:30.363Z,3.80
2023-05-12T06:02:57.308Z,2.35
2023-05-12T06:05:24.214Z,1.98
2023-05-12T06:07:51.089Z,3.80
2023-05-12T06:10:18.161Z,2.70
2023-05-12T06:12:45.356Z,3.97
2023-05-12T06:15:12.216Z,3.47
2023-05-12T06:17:40.694Z,3.00
2023-05-12T06:20:08.740Z,2.85
2023-05-12T06:22:35.645Z,4.97
2023-05-12T06:25:02.536Z,1.85
2023-05-12T06:27:29.418Z,4.45
2023-05-12T06:29:56.269Z,2.80
2023-05-12T06:32:23.168Z,4.07
2023-05-12T06:34:51.534Z,1.98
2023-05-12T06:37:18.396Z,2.58
2023-05-12T06:39:45.269Z,1.48
2023-05-12T06:42:12.131Z,5.03
2023-05-12T06:44:41.770Z,2.33
2023-05-12T06:47:09.104Z,2.10
2023-05-12T06:49:36.006Z,3.88
2023-05-12T06:52:04.772Z,3.22
2023-05-12T06:54:31.633Z,3.55
2023-05-12T06:56:58.692Z,1.77
2023-05-12T06:59:25.605Z,2.22
2023-05-12T07:01:52.690Z,2.03
2023-05-12T07:04:19.742Z,1.88
2023-05-12T07:06:46.648Z,1.95
2023-05-12T07:09:14.969Z,1.63
2023-05-12T07:11:41.851Z,2.40
2023-05-12T07:14:08.906Z,1.98
2023-05-12T07:16:35.881Z,1.20
2023-05-12T07:19:02.881Z,1.27
2023-05-12T07:21:29.861Z,2.03
2023-05-12T07:23:56.733Z,3.08
2023-05-12T07:26:24.963Z,1.83
2023-05-12T07:28:51.936Z,2.05
2023-05-12T07:31:18.857Z,1.45
2023-05-12T07:33:45.844Z,2.17
2023-05-12T07:36:12.897Z,2.28
2023-05-12T07:38:39.844Z,2.78
2023-05-12T07:41:06.743Z,2.15
2023-05-12T07:43:34.974Z,1.50
2023-05-12T07:46:01.874Z,1.25
2023-05-12T07:48:28.715Z,1.00
2023-05-12T07:50:55.582Z,2.50
2023-05-12T07:53:22.450Z,1.20
2023-05-12T07:55:49.430Z,2.35
2023-05-12T07:58:16.296Z,4.20
2023-05-12T08:00:44.649Z,1.55
2023-05-12T08:03:11.650Z,3.45
2023-05-12T08:05:38.566Z,2.75
2023-05-12T08:08:05.481Z,1.20
2023-05-12T08:10:32.464Z,2.53
2023-05-12T08:12:59.346Z,1.67
2023-05-12T08:15:26.410Z,1.80
2023-05-12T08:17:54.725Z,1.08
2023-05-12T08:20:21.640Z,1.42
2023-05-12T08:22:48.529Z,1.15
2023-05-12T08:25:15.432Z,2.75
2023-05-12T08:27:42.396Z,2.63
2023-05-12T08:30:10.174Z,2.03
2023-05-12T08:32:37.097Z,1.77
2023-05-12T08:35:06.064Z,2.25
2023-05-12T08:37:34.484Z,2.58
2023-05-12T08:40:02.061Z,3.38
2023-05-12T08:42:31.222Z,1.85
2023-05-12T08:44:59.540Z,2.13
2023-05-12T08:47:26.399Z,2.88
2023-05-12T08:49:58.595Z,3.38
2023-05-12T08:52:27.321Z,1.98
2023-05-12T08:54:56.344Z,2.97
2023-05-12T08:57:23.532Z,1.17
2023-05-12T08:59:50.433Z,1.10
2023-05-12T09:02:17.648Z,2.53
2023-05-12T09:04:44.710Z,2.88
2023-05-12T09:07:11.690Z,1.45
2023-05-12T09:09:40.973Z,3.30
2023-05-12T09:12:09.002Z,1.15
2023-05-12T09:14:35.884Z,2.22
2023-05-12T09:17:03.807Z,2.05
2023-05-12T09:19:31.019Z,2.17
2023-05-12T09:21:58.267Z,3.10
2023-05-12T09:24:34.208Z,1.55
2023-05-12T09:27:02.486Z,2.00
2023-05-12T09:29:31.814Z,2.42
2023-05-12T09:32:00.486Z,2.15
2023-05-12T09:34:27.838Z,1.77
2023-05-12T09:36:57.883Z,2.53
2023-05-12T09:39:24.915Z,1.90
2023-05-12T09:41:51.839Z,1.92
2023-05-12T09:44:20.166Z,2.17
2023-05-12T09:46:47.036Z,2.35
2023-05-12T09:49:17.857Z,1.98
2023-05-12T09:51:44.707Z,4.72
2023-05-12T09:54:11.583Z,2.65
2023-05-12T09:56:38.568Z,1.27
2023-05-12T09:59:05.578Z,2.25
2023-05-12T10:01:33.836Z,2.58
2023-05-12T10:04:00.762Z,2.97
2023-05-12T10:06:30.364Z,4.53
2023-05-12T10:09:02.555Z,4.22
2023-05-12T10:11:29.419Z,3.65
2023-05-12T10:13:56.475Z,1.70
2023-05-12T10:16:23.381Z,2.13
2023-05-12T10:18:51.615Z,7.32
2023-05-12T10:21:18.525Z,1.60
2023-05-12T10:23:45.464Z,2.40
2023-05-12T10:26:12.514Z,5.75
2023-05-12T10:28:39.380Z,3.28
2023-05-12T10:31:06.306Z,1.63
2023-05-12T10:33:33.193Z,4.20
2023-05-12T10:36:01.463Z,1.38
2023-05-12T10:38:35.543Z,1.55
2023-05-12T10:41:03.184Z,4.95
2023-05-12T10:43:30.706Z,2.03
2023-05-12T10:46:07.288Z,3.22
2023-05-12T10:48:34.169Z,2.80
2023-05-12T10:51:08.504Z,3.05
2023-05-12T10:53:48.308Z,2.50
2023-05-12T10:56:22.282Z,5.28
2023-05-12T10:59:07.686Z,2.30
2023-05-12T11:01:35.645Z,2.80
2023-05-12T11:04:13.395Z,3.20
2023-05-12T11:06:43.009Z,4.15
2023-05-12T11:09:11.078Z,2.75
2023-05-12T11:11:38.424Z,1.55
2023-05-12T11:14:05.466Z,2.10
2023-05-12T11:16:32.404Z,3.00
2023-05-12T11:19:03.463Z,2.05
2023-05-12T11:21:30.692Z,3.30
2023-05-12T11:23:59.054Z,1.48
2023-05-12T11:26:25.953Z,1.83
2023-05-12T11:28:52.818Z,1.58
2023-05-12T11:31:19.809Z,1.23
2023-05-12T11:33:46.844Z,1.20
2023-05-12T11:36:13.785Z,2.63
2023-05-12T11:38:40.676Z,2.10
2023-05-12T11:41:08.941Z,1.50
2023-05-12T11:43:35.805Z,2.53
2023-05-12T11:46:02.924Z,0.85
2023-05-12T11:48:33.474Z,1.98
2023-05-12T11:51:00.309Z,1.25
2023-05-12T11:53:27.745Z,2.20
2023-05-12T11:55:55.286Z,1.42
2023-05-12T11:58:24.329Z,2.55
2023-05-12T12:00:51.194Z,4.28
2023-05-12T12:03:18.235Z,2.47
2023-05-12T12:05:57.750Z,1.42
2023-05-12T12:08:24.588Z,2.10
2023-05-12T12:10:51.469Z,3.15
2023-05-12T12:13:20.167Z,3.10
2023-05-12T12:15:48.572Z,2.15
2023-05-12T12:18:15.509Z,4.03
2023-05-12T12:20:42.443Z,1.17
2023-05-12T12:23:12.172Z,1.30
2023-05-12T12:25:39.019Z,2.75
2023-05-12T12:28:05.896Z,1.40
2023-05-12T12:30:32.862Z,1.73
2023-05-12T12:33:01.184Z,1.08
2023-05-12T12:35:28.071Z,1.58
2023-05-12T12:37:54.963Z,1.10
2023-05-12T12:40:21.826Z,1.45
2023-05-12T12:42:48.757Z,2.38
2023-05-12T12:45:16.176Z,1.75
2023-05-12T12:47:43.818Z,2.17
2023-05-12T12:50:12.280Z,1.98
2023-05-12T12:52:39.329Z,2.15
2023-05-12T12:55:07.486Z,0.88
2023-05-12T12:57:34.372Z,1.85
2023-05-12T13:00:01.358Z,1.95
2023-05-12T13:02:28.300Z,1.50
2023-05-12T13:04:55.255Z,1.48
2023-05-12T13:07:23.489Z,1.13
2023-05-12T13:09:50.343Z,1.67
2023-05-12T13:12:17.318Z,1.15
2023-05-12T13:14:44.175Z,0.95
2023-05-12T13:17:11.108Z,3.25
2023-05-12T13:19:38.312Z,1.90
2023-05-12T13:22:05.417Z,1.85
2023-05-12T13:24:33.669Z,1.90
2023-05-12T13:27:00.600Z,1.10
2023-05-12T13:29:27.437Z,2.25
2023-05-12T13:31:54.405Z,2.35
2023-05-12T13:34:21.354Z,1.73
2023-05-12T13:36:48.272Z,1.90
2023-05-12T13:39:15.761Z,1.75
2023-05-12T13:41:44.619Z,1.27
2023-05-12T13:44:11.556Z,1.42
2023-05-12T13:46:38.492Z,1.40
2023-05-12T13:49:05.377Z,1.98
2023-05-12T13:51:32.262Z,1.55
2023-05-12T13:53:59.168Z,1.45
2023-05-12T13:56:26.157Z,1.52
2023-05-12T13:58:54.410Z,2.60
2023-05-12T14:01:21.360Z,1.73
2023-05-12T14:03:48.210Z,1.80
2023-05-12T14:06:15.077Z,3.70
2023-05-12T14:08:42.031Z,1.00
2023-05-12T14:11:08.939Z,1.38
2023-05-12T14:13:35.832Z,1.23
2023-05-12T14:16:04.647Z,0.93
2023-05-12T14:18:31.581Z,0.75
2023-05-12T14:20:58.544Z,1.67
2023-05-12T14:23:25.417Z,1.98
2023-05-12T14:25:52.455Z,2.25
2023-05-12T14:28:19.380Z,1.98
2023-05-12T14:30:46.453Z,1.10
2023-05-12T14:33:14.837Z,2.88
2023-05-12T14:35:43.250Z,2.42
2023-05-12T14:38:11.649Z,1.65
2023-05-12T14:40:40.231Z,2.95
2023-05-12T14:43:07.291Z,1.45
2023-05-12T14:45:34.244Z,1.67
2023-05-12T14:48:01.247Z,2.53
2023-05-12T14:50:29.561Z,2.72
2023-05-12T14:52:56.417Z,1.20
2023-05-12T14:55:23.630Z,2.33
2023-05-12T14:57:50.590Z,1.30
2023-05-12T15:00:18.643Z,1.63
2023-05-12T15:02:45.659Z,2.25
2023-05-12T15:05:12.949Z,1.85
2023-05-12T15:07:41.186Z,2.65
2023-05-12T15:10:08.535Z,3.03
2023-05-12T15:12:35.411Z,2.17
2023-05-12T15:15:02.368Z,3.47
2023-05-12T15:17:29.319Z,0.95
2023-05-12T15:19:56.332Z,3.65
2023-05-12T15:22:23.327Z,4.65
2023-05-12T15:24:51.629Z,1.20
2023-05-12T15:27:18.580Z,2.40
2023-05-12T15:29:45.494Z,1.40
2023-05-12T15:32:12.411Z,0.85
2023-05-12T15:34:39.267Z,1.50
2023-05-12T15:37:06.168Z,2.22
2023-05-12T15:39:33.021Z,1.50
2023-05-12T15:42:01.267Z,2.05
2023-05-12T15:44:28.146Z,1.92
2023-05-12T15:46:55.201Z,3.53
2023-05-12T15:49:22.296Z,1.50
2023-05-12T15:51:49.177Z,1.92
2023-05-12T15:54:16.086Z,1.98
2023-05-12T15:56:42.989Z,3.38
2023-05-12T15:59:11.238Z,1.75
2023-05-12T16:01:38.127Z,2.58
2023-05-12T16:04:05.168Z,1.77
2023-05-12T16:06:32.363Z,1.50
2023-05-12T16:08:59.250Z,2.13
2023-05-12T16:11:26.111Z,1.27
2023-05-12T16:13:52.976Z,1.05
2023-05-12T16:16:21.225Z,3.30
2023-05-12T16:18:48.207Z,2.53
2023-05-12T16:21:15.172Z,1.48
2023-05-12T16:23:42.028Z,2.15
2023-05-12T16:26:08.891Z,3.17
2023-05-12T16:28:35.974Z,1.25
2023-05-12T16:31:02.883Z,6.28
2023-05-12T16:33:31.221Z,1.95
2023-05-12T16:35:58.102Z,2.58
2023-05-12T16:38:25.046Z,1.73
2023-05-12T16:40:51.969Z,1.35
2023-05-12T16:43:18.899Z,1.85
2023-05-12T16:45:45.915Z,2.40
2023-05-12T16:48:12.888Z,4.75
2023-05-12T16:50:41.127Z,3.00
2023-05-12T16:53:08.012Z,1.75
2023-05-12T16:55:34.875Z,1.27
2023-05-12T16:58:01.740Z,1.73
2023-05-12T17:00:28.601Z,1.33
2023-05-12T17:02:55.508Z,0.75
2023-05-12T17:05:22.861Z,2.35
2023-05-12T17:07:51.321Z,2.72
2023-05-12T17:10:18.183Z,2.15
2023-05-12T17:12:45.116Z,1.58
2023-05-12T17:15:12.230Z,1.38
2023-05-12T17:17:39.286Z,3.05
2023-05-12T17:20:07.241Z,1.67
2023-05-12T17:22:34.131Z,2.60
2023-05-12T17:25:02.471Z,0.93
2023-05-12T17:27:29.398Z,1.23
2023-05-12T17:29:56.255Z,0.75
2023-05-12T17:32:23.201Z,1.30
2023-05-12T17:34:50.112Z,0.63
2023-05-12T17:37:17.279Z,2.85
2023-05-12T17:39:44.226Z,1.42
2023-05-12T17:42:12.484Z,2.65
2023-05-12T17:44:39.353Z,3.10
2023-05-12T17:47:06.637Z,0.65
2023-05-12T17:49:33.699Z,1.13
2023-05-12T17:52:00.533Z,0.77
2023-05-12T17:54:27.441Z,1.38
2023-05-12T17:56:54.330Z,2.13
2023-05-12T17:59:22.555Z,0.80
2023-05-12T18:01:49.399Z,2.42
2023-05-12T18:04:16.302Z,0.70
2023-05-12T18:06:43.264Z,0.75
2023-05-12T18:09:10.183Z,1.10
2023-05-12T18:11:37.172Z,0.98
2023-05-12T18:14:04.038Z,0.75
2023-05-12T18:16:32.515Z,1.67
2023-05-12T18:18:59.538Z,1.83
2023-05-12T18:21:26.448Z,1.10
2023-05-12T18:23:53.320Z,0.95
2023-05-12T18:26:20.193Z,1.08
2023-05-12T18:28:47.037Z,0.68
2023-05-12T18:31:16.210Z,1.67
2023-05-12T18:33:45.960Z,0.73
2023-05-12T18:36:12.885Z,2.50
2023-05-12T18:38:39.798Z,3.38
2023-05-12T18:41:06.637Z,0.85
2023-05-12T18:43:33.474Z,2.67
2023-05-12T18:46:00.533Z,1.55
2023-05-12T18:48:27.411Z,0.57
2023-05-12T18:50:55.701Z,0.88
2023-05-12T18:53:22.627Z,0.90
2023-05-12T18:55:49.511Z,1.88
2023-05-12T18:58:16.392Z,1.35
2023-05-12T19:00:43.260Z,1.95
2023-05-12T19:03:10.154Z,0.70
2023-05-12T19:05:37.268Z,2.08
2023-05-12T19:08:06.004Z,1.20
2023-05-12T19:10:32.898Z,1.05
2023-05-12T19:12:59.799Z,0.63
2023-05-12T19:15:26.790Z,0.55
2023-05-12T19:17:53.823Z,0.85
2023-05-12T19:20:20.860Z,2.42
2023-05-12T19:22:48.796Z,1.25
2023-05-12T19:25:17.087Z,0.73
2023-05-12T19:27:44.130Z,1.63
2023-05-12T19:30:12.435Z,1.00
2023-05-12T19:32:39.539Z,1.50
2023-05-12T19:35:07.521Z,1.50
2023-05-12T19:37:34.564Z,2.72
2023-05-12T19:40:01.537Z,1.23
2023-05-12T19:42:29.796Z,1.20
2023-05-12T19:44:56.700Z,1.00
2023-05-12T19:47:23.748Z,0.77
2023-05-12T19:49:50.666Z,2.08
2023-05-12T19:52:17.602Z,1.10
2023-05-12T19:54:44.461Z,0.70
2023-05-12T19:57:11.336Z,2.00
2023-05-12T19:59:39.580Z,1.77
2023-05-12T20:02:06.539Z,0.93
2023-05-12T20:04:33.407Z,2.78
2023-05-12T20:07:00.292Z,2.25
2023-05-12T20:09:27.176Z,1.27
2023-05-12T20:11:55.263Z,2.15
2023-05-12T20:14:22.214Z,1.80
2023-05-12T20:16:50.481Z,1.70
2023-05-12T20:19:17.916Z,1.30
2023-05-12T20:21:44.805Z,2.70
2023-05-12T20:24:11.746Z,1.65
2023-05-12T20:26:38.644Z,2.20
2023-05-12T20:29:05.508Z,1.65
2023-05-12T20:31:32.539Z,1.75
2023-05-12T20:34:00.778Z,1.27
2023-05-12T20:36:27.635Z,4.72
2023-05-12T20:38:54.484Z,1.90
2023-05-12T20:41:21.359Z,1.52
2023-05-12T20:43:48.219Z,2.63
2023-05-12T20:46:15.167Z,2.00
2023-05-12T20:48:42.072Z,1.30
2023-05-12T20:51:13.462Z,2.50
2023-05-12T20:53:40.419Z,1.20
2023-05-12T20:56:07.295Z,3.17
2023-05-12T20:58:35.059Z,2.35
2023-05-12T21:01:02.013Z,1.65
2023-05-12T21:03:28.962Z,2.20
2023-05-12T21:05:55.824Z,2.22
2023-05-12T21:08:24.174Z,2.00
2023-05-12T21:10:51.050Z,1.48
2023-05-12T21:13:17.949Z,2.38
2023-05-12T21:15:44.835Z,3.10
2023-05-12T21:18:11.817Z,2.22
2023-05-12T21:20:38.725Z,1.42
2023-05-12T21:23:05.640Z,2.22
2023-05-12T21:25:33.913Z,2.55
2023-05-12T21:28:00.757Z,1.58
2023-05-12T21:30:27.609Z,2.92
2023-05-12T21:32:54.480Z,2.40
2023-05-12T21:35:21.388Z,5.10
2023-05-12T21:37:48.345Z,2.20
2023-05-12T21:40:15.410Z,2.03
2023-05-12T21:42:43.723Z,2.58
2023-05-12T21:45:10.883Z,2.38
2023-05-12T21:47:37.822Z,3.08
2023-05-12T21:50:05.376Z,5.00
2023-05-12T21:52:32.250Z,2.40
2023-05-12T21:55:01.131Z,3.88
2023-05-12T21:57:28.011Z,2.10
2023-05-12T21:59:56.276Z,2.50
2023-05-12T22:02:23.177Z,3.97
2023-05-12T22:04:50.077Z,2.95
2023-05-12T22:07:17.033Z,2.42
2023-05-12T22:09:44.036Z,2.05
2023-05-12T22:12:10.939Z,2.00
2023-05-12T22:14:37.869Z,2.10
2023-05-12T22:17:06.233Z,3.42
2023-05-12T22:19:33.078Z,3.03
2023-05-12T22:21:59.955Z,2.88
2023-05-12T22:24:26.924Z,3.47
2023-05-12T22:26:53.763Z,2.60
2023-05-12T22:29:20.636Z,3.45
2023-05-12T22:31:47.590Z,3.42
2023-05-12T22:34:15.896Z,1.70
2023-05-12T22:36:42.948Z,2.85
2023-05-12T22:39:09.830Z,1.98
2023-05-12T22:41:36.743Z,3.63
2023-05-12T22:44:03.764Z,4.43
2023-05-12T22:46:30.694Z,2.95
2023-05-12T22:48:57.883Z,10.35
2023-05-12T22:51:26.173Z,23.52
2023-05-12T22:53:53.139Z,36.67
2023-05-12T22:56:20.069Z,45.05
2023-05-12T22:58:46.959Z,48.78
2023-05-12T23:01:13.897Z,61.60
2023-05-12T23:03:40.959Z,80.82
2023-05-12T23:06:08.117Z,61.70
2023-05-12T23:08:36.378Z,59.60
2023-05-12T23:11:03.249Z,45.20
2023-05-12T23:13:30.105Z,43.33
2023-05-12T23:15:56.972Z,47.22
2023-05-12T23:18:23.932Z,37.88
2023-05-12T23:20:50.856Z,37.85
2023-05-12T23:23:17.760Z,32.17
2023-05-12T23:25:46.542Z,29.20
2023-05-12T23:28:13.395Z,46.33
2023-05-12T23:30:40.233Z,49.75
2023-05-12T23:33:07.121Z,58.17
2023-05-12T23:35:34.001Z,75.93
2023-05-12T23:38:00.865Z,76.32
2023-05-12T23:40:27.784Z,77.10
2023-05-12T23:42:56.043Z,82.13
2023-05-12T23:45:22.903Z,74.80
2023-05-12T23:47:50.016Z,55.40
2023-05-12T23:50:16.952Z,52.20
2023-05-12T23:52:43.908Z,47.38
2023-05-12T23:55:10.770Z,38.40
2023-05-12T23:57:37.658Z,37.88
